createdAt,value
2022-09-21T00:01:24.050Z,21.11
2022-09-21T00:03:53.620Z,21.08
2022-09-21T00:06:19.614Z,21.08
2022-09-21T00:08:45.419Z,21.09
2022-09-21T00:11:14.966Z,21.10
2022-09-21T00:13:41.402Z,21.09
2022-09-21T00:16:07.387Z,21.07
2022-09-21T00:18:33.046Z,21.10
2022-09-21T00:20:58.671Z,21.08
2022-09-21T00:23:24.220Z,21.07
2022-09-21T00:25:49.760Z,21.07
2022-09-21T00:28:15.299Z,21.08
2022-09-21T00:30:40.835Z,21.09
2022-09-21T00:33:06.381Z,21.08
2022-09-21T00:35:32.734Z,21.09
2022-09-21T00:37:59.879Z,21.07
2022-09-21T00:40:25.491Z,21.07
2022-09-21T00:42:51.063Z,21.07
2022-09-21T00:45:23.787Z,21.08
2022-09-21T00:47:50.236Z,21.08
2022-09-21T00:50:16.979Z,21.07
2022-09-21T00:52:43.204Z,21.06
2022-09-21T00:55:11.314Z,21.08
2022-09-21T00:57:36.854Z,21.06
2022-09-21T01:00:04.300Z,21.07
2022-09-21T01:02:29.946Z,21.08
2022-09-21T01:04:55.583Z,21.07
2022-09-21T01:07:22.403Z,21.07
2022-09-21T01:09:49.599Z,21.07
2022-09-21T01:12:23.250Z,21.05
2022-09-21T01:15:09.119Z,21.05
2022-09-21T01:17:36.000Z,21.05
2022-09-21T01:20:20.999Z,21.03
2022-09-21T01:22:53.532Z,21.07
2022-09-21T01:28:14.508Z,21.06
2022-09-21T01:30:40.489Z,21.07
2022-09-21T01:33:08.260Z,21.04
2022-09-21T01:35:50.123Z,21.05
2022-09-21T01:38:18.631Z,21.05
2022-09-21T01:40:45.463Z,21.05
2022-09-21T01:43:13.423Z,21.04
2022-09-21T01:45:40.474Z,21.03
2022-09-21T01:48:06.031Z,21.04
2022-09-21T01:50:32.555Z,21.03
2022-09-21T01:52:59.771Z,21.05
2022-09-21T01:55:27.644Z,21.04
2022-09-21T01:57:55.681Z,21.02
2022-09-21T02:00:21.343Z,21.03
2022-09-21T02:03:07.930Z,21.03
2022-09-21T02:05:33.473Z,21.02
2022-09-21T02:07:59.031Z,21.03
2022-09-21T02:10:28.812Z,21.03
2022-09-21T02:12:57.689Z,21.03
2022-09-21T02:15:23.748Z,21.02
2022-09-21T02:17:54.199Z,21.04
2022-09-21T02:20:22.020Z,21.03
2022-09-21T02:23:07.492Z,21.04
2022-09-21T02:25:37.088Z,21.03
2022-09-21T02:28:22.519Z,21.02
2022-09-21T02:30:52.159Z,21.03
2022-09-21T02:33:19.876Z,21.02
2022-09-21T02:35:47.903Z,21.01
2022-09-21T02:38:31.842Z,21.02
2022-09-21T02:41:16.608Z,21.03
2022-09-21T02:43:44.603Z,21.02
2022-09-21T02:46:14.760Z,21.01
2022-09-21T02:48:42.516Z,21.03
2022-09-21T02:51:09.494Z,21.01
2022-09-21T02:53:36.156Z,21.02
2022-09-21T02:56:04.315Z,21.02
2022-09-21T02:58:30.175Z,21.03
2022-09-21T03:00:55.837Z,21.03
2022-09-21T03:03:22.497Z,21.03
2022-09-21T03:05:48.672Z,21.03
2022-09-21T03:08:14.800Z,21.04
2022-09-21T03:10:40.335Z,21.02
2022-09-21T03:13:08.261Z,21.02
2022-09-21T03:15:34.839Z,21.01
2022-09-21T03:18:00.828Z,21.02
2022-09-21T03:20:26.368Z,21.02
2022-09-21T03:22:51.923Z,21.02
2022-09-21T03:25:17.463Z,21.01
2022-09-21T03:27:43.010Z,21.01
2022-09-21T03:30:08.751Z,21.02
2022-09-21T03:32:34.290Z,21.00
2022-09-21T03:34:59.923Z,21.01
2022-09-21T03:37:25.477Z,20.99
2022-09-21T03:39:51.115Z,21.00
2022-09-21T03:42:16.664Z,21.00
2022-09-21T03:44:42.274Z,21.00
2022-09-21T03:47:07.830Z,21.00
2022-09-21T03:49:34.223Z,21.01
2022-09-21T03:52:00.197Z,21.00
2022-09-21T03:54:25.735Z,21.02
2022-09-21T03:56:51.280Z,20.99
2022-09-21T03:59:16.815Z,20.99
2022-09-21T04:01:42.596Z,20.99
2022-09-21T04:04:08.342Z,20.99
2022-09-21T04:06:33.967Z,21.00
2022-09-21T04:09:02.110Z,20.98
2022-09-21T04:11:27.648Z,20.98
2022-09-21T04:13:56.064Z,20.97
2022-09-21T04:16:24.902Z,20.97
2022-09-21T04:18:50.723Z,20.98
2022-09-21T04:21:17.025Z,20.99
2022-09-21T04:23:42.841Z,20.98
2022-09-21T04:26:17.904Z,20.97
2022-09-21T04:28:43.451Z,20.97
2022-09-21T04:31:09.027Z,20.98
2022-09-21T04:33:34.631Z,21.00
2022-09-21T04:36:01.117Z,20.99
2022-09-21T04:38:26.659Z,20.98
2022-09-21T04:40:53.902Z,20.96
2022-09-21T04:43:22.559Z,20.95
2022-09-21T04:45:48.296Z,20.98
2022-09-21T04:48:13.838Z,20.97
2022-09-21T04:50:39.378Z,20.97
2022-09-21T04:53:05.128Z,20.97
2022-09-21T04:55:30.883Z,20.96
2022-09-21T04:57:56.613Z,20.97
2022-09-21T05:00:22.150Z,20.95
2022-09-21T05:02:47.700Z,20.97
2022-09-21T05:05:13.248Z,20.96
2022-09-21T05:07:38.796Z,20.96
2022-09-21T05:10:04.618Z,20.96
2022-09-21T05:12:30.703Z,20.96
2022-09-21T05:14:56.251Z,20.96
2022-09-21T05:17:22.336Z,20.95
2022-09-21T05:19:48.270Z,20.97
2022-09-21T05:22:13.816Z,20.99
2022-09-21T05:24:39.356Z,20.97
2022-09-21T05:27:04.905Z,20.97
2022-09-21T05:29:30.600Z,20.96
2022-09-21T05:32:01.424Z,20.96
2022-09-21T05:34:44.740Z,20.97
2022-09-21T05:37:14.375Z,20.95
2022-09-21T05:39:40.139Z,20.97
2022-09-21T05:42:06.129Z,20.96
2022-09-21T05:44:31.741Z,20.94
2022-09-21T05:47:17.172Z,20.95
2022-09-21T05:49:50.723Z,20.95
2022-09-21T05:55:30.505Z,20.74
2022-09-21T05:58:01.170Z,20.88
2022-09-21T06:00:26.707Z,20.93
2022-09-21T06:02:55.222Z,20.94
2022-09-21T06:05:21.017Z,20.97
2022-09-21T06:07:46.561Z,20.94
2022-09-21T06:10:12.565Z,20.93
2022-09-21T06:12:38.176Z,20.93
2022-09-21T06:15:04.471Z,20.94
2022-09-21T06:17:30.018Z,20.95
2022-09-21T06:19:55.549Z,20.94
2022-09-21T06:22:21.098Z,20.91
2022-09-21T06:24:46.637Z,20.90
2022-09-21T06:27:12.187Z,20.92
2022-09-21T06:29:37.726Z,20.93
2022-09-21T06:32:03.646Z,20.97
2022-09-21T06:34:29.186Z,20.94
2022-09-21T06:36:54.730Z,20.95
2022-09-21T06:39:20.261Z,20.93
2022-09-21T06:41:45.798Z,20.95
2022-09-21T06:44:11.351Z,20.95
2022-09-21T06:46:36.898Z,20.99
2022-09-21T06:49:02.450Z,20.98
2022-09-21T06:51:27.992Z,20.99
2022-09-21T06:53:54.102Z,20.98
2022-09-21T06:56:19.816Z,21.00
2022-09-21T06:58:46.717Z,20.99
2022-09-21T07:01:12.743Z,20.99
2022-09-21T07:03:38.855Z,21.02
2022-09-21T07:06:04.733Z,21.00
2022-09-21T07:11:15.803Z,20.99
2022-09-21T07:13:41.702Z,20.97
2022-09-21T07:16:08.395Z,20.99
2022-09-21T07:18:42.665Z,20.97
2022-09-21T07:21:09.666Z,20.64
2022-09-21T07:23:35.330Z,20.84
2022-09-21T07:26:01.625Z,20.90
2022-09-21T07:28:27.182Z,20.27
2022-09-21T07:30:52.751Z,20.65
2022-09-21T07:33:18.300Z,20.81
2022-09-21T07:35:59.953Z,20.88
2022-09-21T07:38:25.515Z,20.92
2022-09-21T07:40:51.123Z,20.92
2022-09-21T07:43:17.011Z,20.94
2022-09-21T07:45:42.617Z,20.93
2022-09-21T07:48:08.235Z,20.95
2022-09-21T07:50:33.966Z,20.95
2022-09-21T07:52:59.976Z,20.94
2022-09-21T07:55:25.822Z,20.95
2022-09-21T07:58:11.270Z,20.94
2022-09-21T08:00:37.437Z,20.95
2022-09-21T08:03:04.123Z,20.94
2022-09-21T08:05:29.660Z,20.95
2022-09-21T08:07:56.166Z,20.99
2022-09-21T08:10:22.045Z,20.99
2022-09-21T08:12:47.598Z,21.00
2022-09-21T08:15:36.834Z,21.01
2022-09-21T08:17:59.986Z,20.97
2022-09-21T08:20:25.530Z,20.97
2022-09-21T08:22:52.857Z,21.00
2022-09-21T08:25:18.497Z,20.98
2022-09-21T08:27:44.042Z,21.02
2022-09-21T08:30:12.866Z,21.07
2022-09-21T08:32:50.979Z,21.04
2022-09-21T08:35:18.283Z,21.01
2022-09-21T08:37:43.936Z,20.53
2022-09-21T08:40:09.750Z,20.16
2022-09-21T08:42:50.603Z,20.43
2022-09-21T08:45:17.081Z,20.36
2022-09-21T08:47:44.514Z,20.11
2022-09-21T08:50:19.271Z,20.38
2022-09-21T08:52:47.373Z,20.73
2022-09-21T08:55:17.712Z,20.84
2022-09-21T08:57:43.482Z,20.94
2022-09-21T09:00:12.777Z,20.95
2022-09-21T09:02:58.197Z,21.02
2022-09-21T09:05:43.649Z,21.02
2022-09-21T09:08:29.086Z,21.08
2022-09-21T09:10:57.338Z,21.09
2022-09-21T09:13:30.151Z,21.06
2022-09-21T09:16:15.706Z,21.01
2022-09-21T09:19:01.169Z,20.99
2022-09-21T09:21:31.913Z,20.61
2022-09-21T09:24:06.165Z,20.89
2022-09-21T09:26:33.482Z,20.97
2022-09-21T09:29:00.312Z,20.95
2022-09-21T09:31:27.539Z,20.99
2022-09-21T09:33:55.117Z,20.99
2022-09-21T09:36:34.774Z,20.98
2022-09-21T09:39:15.739Z,21.01
2022-09-21T09:42:01.210Z,21.02
2022-09-21T09:47:31.910Z,21.01
2022-09-21T09:50:00.890Z,21.01
2022-09-21T09:52:26.998Z,21.08
2022-09-21T09:54:53.846Z,21.13
2022-09-21T09:57:25.291Z,20.97
2022-09-21T09:59:54.826Z,21.10
2022-09-21T10:02:21.315Z,21.13
2022-09-21T10:05:08.046Z,21.11
2022-09-21T10:07:34.593Z,21.10
2022-09-21T10:10:00.173Z,21.05
2022-09-21T10:12:26.686Z,21.10
2022-09-21T10:14:52.971Z,21.02
2022-09-21T10:17:18.651Z,20.77
2022-09-21T10:19:44.199Z,20.41
2022-09-21T10:22:17.602Z,20.84
2022-09-21T10:24:48.407Z,21.00
2022-09-21T10:27:14.861Z,20.85
2022-09-21T10:29:41.522Z,20.98
2022-09-21T10:32:16.953Z,21.03
2022-09-21T10:34:58.986Z,21.07
2022-09-21T10:37:26.193Z,21.07
2022-09-21T10:39:51.907Z,21.05
2022-09-21T10:42:17.675Z,21.03
2022-09-21T10:44:44.541Z,21.06
2022-09-21T10:47:29.984Z,21.05
2022-09-21T10:49:56.350Z,21.05
2022-09-21T10:52:31.480Z,21.05
2022-09-21T10:54:57.023Z,21.06
2022-09-21T10:57:23.191Z,21.07
2022-09-21T10:59:48.834Z,21.10
2022-09-21T11:02:34.119Z,21.08
2022-09-21T11:05:09.747Z,21.09
2022-09-21T11:07:51.684Z,21.09
2022-09-21T11:10:19.971Z,21.13
2022-09-21T11:12:48.985Z,21.12
2022-09-21T11:15:34.446Z,21.15
2022-09-21T11:18:04.131Z,21.17
2022-09-21T11:20:31.121Z,21.14
2022-09-21T11:25:40.491Z,21.15
2022-09-21T11:28:12.570Z,21.02
2022-09-21T11:30:42.355Z,21.14
2022-09-21T11:33:13.034Z,21.16
2022-09-21T11:35:43.544Z,21.19
2022-09-21T11:43:34.730Z,21.15
2022-09-21T11:46:20.265Z,21.15
2022-09-21T11:49:05.848Z,21.09
2022-09-21T11:51:55.975Z,21.10
2022-09-21T11:57:10.377Z,21.14
2022-09-21T11:59:47.043Z,21.14
2022-09-21T12:02:30.931Z,21.16
2022-09-21T12:04:58.376Z,21.15
2022-09-21T12:07:35.206Z,21.20
2022-09-21T12:10:07.577Z,21.19
2022-09-21T12:12:53.487Z,21.18
2022-09-21T12:15:38.913Z,21.16
2022-09-21T12:18:13.865Z,21.17
2022-09-21T12:20:48.070Z,21.15
2022-09-21T12:23:16.661Z,21.17
2022-09-21T12:25:43.441Z,21.26
2022-09-21T12:28:29.000Z,21.24
2022-09-21T12:31:00.909Z,21.22
2022-09-21T12:33:46.469Z,21.24
2022-09-21T12:36:16.701Z,21.20
2022-09-21T12:38:48.323Z,21.19
2022-09-21T12:41:18.301Z,21.19
2022-09-21T12:43:46.311Z,21.20
2022-09-21T12:46:20.167Z,21.18
2022-09-21T12:48:45.779Z,21.18
2022-09-21T12:51:12.849Z,21.20
2022-09-21T12:53:39.349Z,21.18
2022-09-21T12:56:12.540Z,21.17
2022-09-21T12:58:58.044Z,21.18
2022-09-21T13:01:43.637Z,21.17
2022-09-21T13:04:29.134Z,21.18
2022-09-21T13:07:01.198Z,21.15
2022-09-21T13:09:26.745Z,21.16
2022-09-21T13:11:55.750Z,21.19
2022-09-21T13:14:23.399Z,21.20
2022-09-21T13:16:56.886Z,21.17
2022-09-21T13:19:23.054Z,21.14
2022-09-21T13:22:12.038Z,21.14
2022-09-21T13:24:37.583Z,21.15
2022-09-21T13:27:05.726Z,21.18
2022-09-21T13:29:32.553Z,21.18
2022-09-21T13:31:59.937Z,21.18
2022-09-21T13:34:34.322Z,21.18
2022-09-21T13:37:19.758Z,21.20
2022-09-21T13:40:03.356Z,21.19
2022-09-21T13:45:24.612Z,21.18
2022-09-21T13:47:50.827Z,21.18
2022-09-21T13:50:36.340Z,21.17
2022-09-21T13:53:02.999Z,21.18
2022-09-21T13:55:29.843Z,21.19
2022-09-21T13:57:56.223Z,21.21
2022-09-21T14:03:03.218Z,21.18
2022-09-21T14:05:44.662Z,21.21
2022-09-21T14:08:16.084Z,21.22
2022-09-21T14:11:01.782Z,21.24
2022-09-21T14:13:34.204Z,21.23
2022-09-21T14:16:19.750Z,21.19
2022-09-21T14:18:46.110Z,21.20
2022-09-21T14:21:16.477Z,21.19
2022-09-21T14:24:03.982Z,21.20
2022-09-21T14:26:45.835Z,21.19
2022-09-21T14:29:14.634Z,21.18
2022-09-21T14:31:40.228Z,21.18
2022-09-21T14:34:09.894Z,21.17
2022-09-21T14:36:40.589Z,21.19
2022-09-21T14:39:07.061Z,21.17
2022-09-21T14:41:38.150Z,21.19
2022-09-21T14:44:03.691Z,21.15
2022-09-21T14:46:49.189Z,21.15
2022-09-21T14:49:19.761Z,21.18
2022-09-21T14:51:55.647Z,21.16
2022-09-21T14:54:33.227Z,21.20
2022-09-21T14:57:18.779Z,21.14
2022-09-21T14:59:53.046Z,21.12
2022-09-21T15:02:20.254Z,21.11
2022-09-21T15:05:05.752Z,21.12
2022-09-21T15:07:56.747Z,21.09
2022-09-21T15:10:44.287Z,21.14
2022-09-21T15:13:12.922Z,21.13
2022-09-21T15:15:58.409Z,21.13
2022-09-21T15:18:24.954Z,21.12
2022-09-21T15:21:00.563Z,21.12
2022-09-21T15:23:26.490Z,21.11
2022-09-21T15:25:53.739Z,21.10
2022-09-21T15:28:19.281Z,21.12
2022-09-21T15:30:45.814Z,21.15
2022-09-21T15:33:11.369Z,21.15
2022-09-21T15:35:36.924Z,21.12
2022-09-21T15:38:02.464Z,21.12
2022-09-21T15:40:30.469Z,21.12
2022-09-21T15:43:16.070Z,21.10
2022-09-21T15:46:01.616Z,21.11
2022-09-21T15:48:31.746Z,21.09
2022-09-21T15:50:59.554Z,21.12
2022-09-21T15:53:25.940Z,21.12
2022-09-21T15:55:51.641Z,21.11
2022-09-21T15:58:21.818Z,21.10
2022-09-21T16:00:54.062Z,21.10
2022-09-21T16:03:20.353Z,21.11
2022-09-21T16:05:49.822Z,21.12
2022-09-21T16:08:17.257Z,21.11
2022-09-21T16:10:43.826Z,21.11
2022-09-21T16:13:44.312Z,21.12
2022-09-21T16:16:11.913Z,21.09
2022-09-21T16:18:42.265Z,21.09
2022-09-21T16:21:12.922Z,21.09
2022-09-21T16:23:38.645Z,21.08
2022-09-21T16:26:04.288Z,21.08
2022-09-21T16:28:34.195Z,21.09
2022-09-21T16:31:21.490Z,21.09
2022-09-21T16:36:31.517Z,21.09
2022-09-21T16:38:57.179Z,21.09
2022-09-21T16:41:23.912Z,21.09
2022-09-21T16:43:50.213Z,21.07
2022-09-21T16:46:15.927Z,21.07
2022-09-21T16:48:41.485Z,21.08
2022-09-21T16:51:14.749Z,21.09
2022-09-21T16:53:40.469Z,21.08
2022-09-21T16:56:10.586Z,21.08
2022-09-21T16:58:36.159Z,21.08
2022-09-21T17:01:01.983Z,21.08
2022-09-21T17:03:29.908Z,21.09
2022-09-21T17:05:56.467Z,21.07
2022-09-21T17:08:23.249Z,21.08
2022-09-21T17:10:48.799Z,21.08
2022-09-21T17:13:16.149Z,21.05
2022-09-21T17:15:43.500Z,21.05
2022-09-21T17:18:09.787Z,21.06
2022-09-21T17:20:36.162Z,21.06
2022-09-21T17:23:02.406Z,21.05
2022-09-21T17:25:29.107Z,21.06
2022-09-21T17:27:57.222Z,21.05
2022-09-21T17:30:23.629Z,21.06
2022-09-21T17:32:49.221Z,21.06
2022-09-21T17:35:16.738Z,21.06
2022-09-21T17:37:42.386Z,21.06
2022-09-21T17:40:10.829Z,21.07
2022-09-21T17:42:38.894Z,21.06
2022-09-21T17:47:44.307Z,21.07
2022-09-21T17:53:06.711Z,21.07
2022-09-21T17:55:32.397Z,21.06
2022-09-21T17:58:03.670Z,21.05
2022-09-21T18:00:33.089Z,21.04
2022-09-21T18:02:58.748Z,21.06
2022-09-21T18:05:25.267Z,21.07
2022-09-21T18:07:51.154Z,21.05
2022-09-21T18:10:18.109Z,21.06
2022-09-21T18:13:06.115Z,21.05
2022-09-21T18:18:31.768Z,21.04
2022-09-21T18:21:02.729Z,21.05
2022-09-21T18:23:48.154Z,21.03
2022-09-21T18:26:15.602Z,21.04
2022-09-21T18:28:44.083Z,21.03
2022-09-21T18:34:12.160Z,21.02
2022-09-21T18:36:57.970Z,21.03
2022-09-21T18:39:32.873Z,21.02
2022-09-21T18:42:05.070Z,21.03
2022-09-21T18:44:50.692Z,21.04
2022-09-21T18:47:19.010Z,21.03
2022-09-21T18:49:47.853Z,21.03
2022-09-21T18:52:34.446Z,21.03
2022-09-21T18:54:59.995Z,21.02
2022-09-21T18:57:25.658Z,21.02
2022-09-21T18:59:51.235Z,21.02
2022-09-21T19:02:19.163Z,21.02
2022-09-21T19:04:45.087Z,21.02
2022-09-21T19:07:30.566Z,21.03
2022-09-21T19:09:59.162Z,21.02
2022-09-21T19:12:30.599Z,21.02
2022-09-21T19:15:16.238Z,21.03
2022-09-21T19:17:46.333Z,21.03
2022-09-21T19:20:31.766Z,21.02
2022-09-21T19:23:01.683Z,21.01
2022-09-21T19:25:36.710Z,21.03
2022-09-21T19:28:15.553Z,21.04
2022-09-21T19:30:41.141Z,21.02
2022-09-21T19:33:32.240Z,21.02
2022-09-21T19:36:02.642Z,21.03
2022-09-21T19:38:28.595Z,21.01
2022-09-21T19:40:57.315Z,21.01
2022-09-21T19:43:28.482Z,21.02
2022-09-21T19:46:13.948Z,21.01
2022-09-21T19:48:44.002Z,21.01
2022-09-21T19:51:29.430Z,21.01
2022-09-21T19:54:15.477Z,21.02
2022-09-21T19:57:04.262Z,21.02
2022-09-21T19:59:45.005Z,21.02
2022-09-21T20:02:14.803Z,21.01
2022-09-21T20:04:56.226Z,21.02
2022-09-21T20:07:25.066Z,21.01
2022-09-21T20:09:55.905Z,21.02
2022-09-21T20:12:23.503Z,21.01
2022-09-21T20:14:59.669Z,21.01
2022-09-21T20:17:45.089Z,21.00
2022-09-21T20:20:12.923Z,21.01
2022-09-21T20:22:39.106Z,21.01
2022-09-21T20:27:50.025Z,21.01
2022-09-21T20:30:16.301Z,21.02
2022-09-21T20:32:43.678Z,21.02
2022-09-21T20:35:14.102Z,21.02
2022-09-21T20:37:39.659Z,21.01
2022-09-21T20:40:05.473Z,21.00
2022-09-21T20:42:33.514Z,21.00
2022-09-21T20:44:59.058Z,21.01
2022-09-21T20:47:25.046Z,21.01
2022-09-21T20:49:50.594Z,21.02
2022-09-21T20:52:16.498Z,21.00
2022-09-21T20:54:48.304Z,21.01
2022-09-21T20:57:15.035Z,21.01
2022-09-21T20:59:40.580Z,21.00
2022-09-21T21:02:06.974Z,21.01
2022-09-21T21:04:32.732Z,21.01
2022-09-21T21:06:58.275Z,20.99
2022-09-21T21:09:24.500Z,21.00
2022-09-21T21:11:50.559Z,20.99
2022-09-21T21:14:16.108Z,20.98
2022-09-21T21:16:41.724Z,20.98
2022-09-21T21:19:07.342Z,20.99
2022-09-21T21:21:33.706Z,20.99
2022-09-21T21:24:19.161Z,20.98
2022-09-21T21:27:01.392Z,20.98
2022-09-21T21:29:27.595Z,21.00
2022-09-21T21:31:53.170Z,20.99
2022-09-21T21:34:18.749Z,20.98
2022-09-21T21:36:44.638Z,20.99
2022-09-21T21:39:10.179Z,21.00
2022-09-21T21:41:35.719Z,21.00
2022-09-21T21:44:01.263Z,20.98
2022-09-21T21:46:26.932Z,20.97
2022-09-21T21:48:52.496Z,20.97
2022-09-21T21:51:18.046Z,20.97
2022-09-21T21:53:43.747Z,20.97
2022-09-21T21:56:10.544Z,20.97
2022-09-21T21:58:36.163Z,20.96
2022-09-21T22:01:05.784Z,20.96
2022-09-21T22:03:31.367Z,20.95
2022-09-21T22:05:56.907Z,20.97
2022-09-21T22:08:22.456Z,20.96
2022-09-21T22:10:48.959Z,20.97
2022-09-21T22:13:17.080Z,20.96
2022-09-21T22:15:43.690Z,20.97
2022-09-21T22:18:09.227Z,20.97
2022-09-21T22:20:34.788Z,20.98
2022-09-21T22:23:00.832Z,20.96
2022-09-21T22:25:27.544Z,20.96
2022-09-21T22:27:53.202Z,20.96
2022-09-21T22:30:19.019Z,20.96
2022-09-21T22:32:44.580Z,20.95
2022-09-21T22:35:10.575Z,20.96
2022-09-21T22:37:36.116Z,20.97
2022-09-21T22:40:02.090Z,20.95
2022-09-21T22:42:27.715Z,20.95
2022-09-21T22:44:53.283Z,20.95
2022-09-21T22:47:18.833Z,20.95
2022-09-21T22:49:44.371Z,20.96
2022-09-21T22:52:09.928Z,20.96
2022-09-21T22:54:35.472Z,20.94
2022-09-21T22:57:01.023Z,20.95
2022-09-21T22:59:26.560Z,20.94
2022-09-21T23:01:52.117Z,20.94
2022-09-21T23:04:17.795Z,20.95
2022-09-21T23:06:44.191Z,20.94
2022-09-21T23:09:14.011Z,20.95
2022-09-21T23:11:46.307Z,20.94
2022-09-21T23:14:13.559Z,20.93
2022-09-21T23:16:39.121Z,20.94
2022-09-21T23:19:04.740Z,20.94
2022-09-21T23:21:30.301Z,20.95
2022-09-21T23:23:58.798Z,20.95
2022-09-21T23:26:25.347Z,20.94
2022-09-21T23:28:51.879Z,20.94
2022-09-21T23:31:17.689Z,20.94
2022-09-21T23:33:44.556Z,20.92
2022-09-21T23:36:10.850Z,20.93
2022-09-21T23:38:36.875Z,20.94
2022-09-21T23:41:04.664Z,20.93
2022-09-21T23:43:30.464Z,20.92
2022-09-21T23:45:59.051Z,20.94
2022-09-21T23:48:24.701Z,20.93
2022-09-21T23:50:50.259Z,20.93
2022-09-21T23:53:15.812Z,20.92
2022-09-21T23:55:41.342Z,20.93
2022-09-21T23:58:06.889Z,20.93
